createdAt,value
2022-11-28T00:01:43.352Z,10.04
2022-11-28T00:04:11.999Z,10.85
2022-11-28T00:06:45.427Z,9.77
2022-11-28T00:09:15.496Z,8.70
2022-11-28T00:11:46.326Z,8.11
2022-11-28T00:14:16.476Z,9.31
2022-11-28T00:16:47.084Z,10.59
2022-11-28T00:19:15.105Z,9.87
2022-11-28T00:21:43.113Z,8.72
2022-11-28T00:24:11.149Z,8.24
2022-11-28T00:26:42.100Z,9.52
2022-11-28T00:29:10.502Z,10.41
2022-11-28T00:31:43.016Z,9.46
2022-11-28T00:34:12.831Z,8.34
2022-11-28T00:36:41.002Z,8.17
2022-11-28T00:39:08.888Z,9.87
2022-11-28T00:41:36.792Z,10.63
2022-11-28T00:44:06.531Z,9.42
2022-11-28T00:46:35.876Z,8.30
2022-11-28T00:49:06.553Z,7.74
2022-11-28T00:51:35.600Z,8.81
2022-11-28T00:54:06.113Z,9.99
2022-11-28T00:56:39.052Z,9.27
2022-11-28T00:59:07.433Z,8.11
2022-11-28T01:01:43.887Z,8.33
2022-11-28T01:04:17.673Z,9.74
2022-11-28T01:06:48.754Z,9.65
2022-11-28T01:09:21.754Z,8.47
2022-11-28T01:11:52.714Z,7.68
2022-11-28T01:14:23.913Z,8.71
2022-11-28T01:16:54.273Z,9.94
2022-11-28T01:19:22.159Z,9.67
2022-11-28T01:21:50.288Z,8.44
2022-11-28T01:24:18.527Z,7.70
2022-11-28T01:26:46.752Z,8.85
2022-11-28T01:29:15.039Z,9.56
2022-11-28T01:31:43.293Z,8.46
2022-11-28T01:34:11.424Z,7.55
2022-11-28T01:36:39.473Z,8.24
2022-11-28T01:39:07.678Z,9.68
2022-11-28T01:41:35.573Z,9.60
2022-11-28T01:44:15.428Z,8.45
2022-11-28T01:46:43.929Z,7.45
2022-11-28T01:49:13.963Z,7.46
2022-11-28T01:51:47.727Z,9.01
2022-11-28T01:54:16.923Z,9.71
2022-11-28T01:56:52.571Z,8.64
2022-11-28T01:59:25.111Z,7.56
2022-11-28T02:01:53.264Z,6.84
2022-11-28T02:04:22.227Z,7.51
2022-11-28T02:06:50.080Z,9.25
2022-11-28T02:09:18.119Z,9.53
2022-11-28T02:12:03.952Z,8.31
2022-11-28T02:14:54.740Z,7.22
2022-11-28T02:17:55.896Z,6.51
2022-11-28T02:21:04.520Z,8.10
2022-11-28T02:23:41.525Z,9.33
2022-11-28T02:26:30.792Z,8.05
2022-11-28T02:29:37.429Z,6.94
2022-11-28T02:32:48.471Z,6.66
2022-11-28T02:35:37.772Z,9.08
2022-11-28T02:38:29.043Z,9.04
2022-11-28T02:41:19.942Z,7.59
2022-11-28T02:44:11.152Z,6.60
2022-11-28T02:46:57.862Z,6.69
2022-11-28T02:50:07.593Z,8.95
2022-11-28T02:52:42.740Z,8.87
2022-11-28T02:55:11.528Z,7.54
2022-11-28T02:57:42.563Z,6.62
2022-11-28T03:00:39.591Z,6.24
2022-11-28T03:03:42.545Z,8.36
2022-11-28T03:06:44.481Z,9.31
2022-11-28T03:10:01.586Z,7.71
2022-11-28T03:12:50.749Z,6.45
2022-11-28T03:15:24.180Z,6.33
2022-11-28T03:18:03.210Z,8.05
2022-11-28T03:20:47.642Z,8.73
2022-11-28T03:23:43.479Z,7.44
2022-11-28T03:26:23.360Z,6.30
2022-11-28T03:29:07.148Z,6.09
2022-11-28T03:31:51.769Z,7.89
2022-11-28T03:34:23.595Z,8.53
2022-11-28T03:36:57.913Z,7.32
2022-11-28T03:39:32.319Z,6.30
2022-11-28T03:42:16.113Z,6.21
2022-11-28T03:44:50.228Z,7.98
2022-11-28T03:47:18.149Z,7.94
2022-11-28T03:49:53.216Z,6.74
2022-11-28T03:52:32.226Z,5.85
2022-11-28T03:55:24.074Z,6.47
2022-11-28T03:57:59.295Z,8.24
2022-11-28T04:00:27.354Z,7.60
2022-11-28T04:03:13.722Z,6.46
2022-11-28T04:06:04.621Z,5.55
2022-11-28T04:08:40.127Z,5.71
2022-11-28T04:11:15.067Z,7.62
2022-11-28T04:13:59.641Z,8.59
2022-11-28T04:16:42.795Z,7.29
2022-11-28T04:19:18.376Z,6.12
2022-11-28T04:22:07.828Z,5.38
2022-11-28T04:24:41.853Z,6.36
2022-11-28T04:27:19.065Z,7.90
2022-11-28T04:29:52.150Z,7.15
2022-11-28T04:32:21.473Z,6.03
2022-11-28T04:34:55.517Z,5.61
2022-11-28T04:37:25.370Z,7.14
2022-11-28T04:39:53.897Z,7.53
2022-11-28T04:42:31.183Z,6.41
2022-11-28T04:45:11.916Z,5.47
2022-11-28T04:47:39.776Z,6.10
2022-11-28T04:50:08.647Z,7.80
2022-11-28T04:52:51.795Z,7.97
2022-11-28T04:55:49.156Z,6.67
2022-11-28T04:58:35.689Z,5.58
2022-11-28T05:01:07.233Z,5.47
2022-11-28T05:03:39.877Z,7.17
2022-11-28T05:06:10.281Z,8.04
2022-11-28T05:08:38.113Z,6.91
2022-11-28T05:11:05.845Z,5.88
2022-11-28T05:13:33.622Z,5.14
2022-11-28T05:16:03.404Z,5.48
2022-11-28T05:18:31.283Z,7.17
2022-11-28T05:20:59.635Z,7.31
2022-11-28T05:23:27.542Z,6.17
2022-11-28T05:25:55.419Z,5.28
2022-11-28T05:28:23.248Z,5.19
2022-11-28T05:31:02.181Z,6.73
2022-11-28T05:33:31.620Z,7.65
2022-11-28T05:36:11.351Z,6.58
2022-11-28T05:38:42.102Z,5.49
2022-11-28T05:41:19.050Z,5.04
2022-11-28T05:43:47.002Z,6.49
2022-11-28T05:46:15.285Z,7.59
2022-11-28T05:48:43.321Z,6.72
2022-11-28T05:51:11.854Z,5.69
2022-11-28T05:53:39.930Z,4.94
2022-11-28T05:56:09.886Z,5.68
2022-11-28T05:58:37.908Z,7.25
2022-11-28T06:01:22.006Z,6.96
2022-11-28T06:03:49.919Z,5.74
2022-11-28T06:06:22.318Z,5.18
2022-11-28T06:08:52.317Z,6.47
2022-11-28T06:11:22.367Z,7.26
2022-11-28T06:13:50.689Z,6.23
2022-11-28T06:16:22.917Z,5.25
2022-11-28T06:18:59.340Z,5.41
2022-11-28T06:21:28.727Z,7.05
2022-11-28T06:23:57.958Z,6.98
2022-11-28T06:26:27.895Z,5.83
2022-11-28T06:28:56.091Z,4.97
2022-11-28T06:31:28.617Z,5.31
2022-11-28T06:33:58.129Z,6.89
2022-11-28T06:36:27.050Z,7.31
2022-11-28T06:38:54.966Z,6.20
2022-11-28T06:41:23.137Z,5.27
2022-11-28T06:43:51.463Z,5.91
2022-11-28T06:46:21.575Z,7.25
2022-11-28T06:48:51.752Z,6.43
2022-11-28T06:51:20.300Z,5.44
2022-11-28T06:53:49.023Z,5.08
2022-11-28T06:56:19.907Z,6.52
2022-11-28T06:58:53.097Z,7.42
2022-11-28T07:01:23.984Z,6.38
2022-11-28T07:03:54.592Z,5.38
2022-11-28T07:06:25.654Z,5.20
2022-11-28T07:08:57.004Z,6.70
2022-11-28T07:11:31.321Z,7.63
2022-11-28T07:14:02.396Z,6.65
2022-11-28T07:16:33.070Z,5.58
2022-11-28T07:19:01.100Z,5.26
2022-11-28T07:21:32.385Z,6.71
2022-11-28T07:24:00.777Z,7.68
2022-11-28T07:26:31.784Z,6.64
2022-11-28T07:29:00.260Z,5.58
2022-11-28T07:31:33.116Z,5.36
2022-11-28T07:34:03.597Z,6.87
2022-11-28T07:36:32.272Z,7.71
2022-11-28T07:39:02.224Z,6.71
2022-11-28T07:41:30.694Z,5.70
2022-11-28T07:44:01.173Z,5.87
2022-11-28T07:46:31.660Z,7.46
2022-11-28T07:49:00.775Z,7.38
2022-11-28T07:51:32.755Z,6.26
2022-11-28T07:54:02.214Z,5.52
2022-11-28T07:57:04.490Z,6.52
2022-11-28T07:59:23.670Z,8.08
2022-11-28T08:01:53.798Z,7.39
2022-11-28T08:04:21.977Z,6.30
2022-11-28T08:06:50.068Z,5.55
2022-11-28T08:09:19.245Z,6.09
2022-11-28T08:11:47.137Z,7.80
2022-11-28T08:14:15.053Z,7.79
2022-11-28T08:16:45.131Z,6.64
2022-11-28T08:19:13.621Z,5.84
2022-11-28T08:21:41.623Z,6.34
2022-11-28T08:24:10.996Z,7.98
2022-11-28T08:26:39.051Z,7.86
2022-11-28T08:29:07.165Z,7.00
2022-11-28T08:31:38.483Z,6.44
2022-11-28T08:34:10.989Z,6.24
2022-11-28T08:36:39.125Z,7.75
2022-11-28T08:39:23.481Z,9.02
2022-11-28T08:41:54.401Z,8.25
2022-11-28T08:44:25.149Z,7.50
2022-11-28T08:46:54.126Z,6.96
2022-11-28T08:49:21.960Z,6.51
2022-11-28T08:51:49.927Z,6.37
2022-11-28T08:54:17.962Z,7.83
2022-11-28T08:56:48.207Z,8.03
2022-11-28T08:59:16.331Z,7.13
2022-11-28T09:01:44.279Z,6.43
2022-11-28T09:04:12.957Z,7.03
2022-11-28T09:06:41.810Z,8.46
2022-11-28T09:09:10.157Z,8.00
2022-11-28T09:11:38.525Z,7.10
2022-11-28T09:14:06.851Z,6.51
2022-11-28T09:16:34.845Z,7.51
2022-11-28T09:19:02.874Z,9.12
2022-11-28T09:21:30.916Z,8.76
2022-11-28T09:24:01.827Z,7.65
2022-11-28T09:26:30.173Z,6.99
2022-11-28T09:28:57.989Z,6.87
2022-11-28T09:31:26.158Z,8.43
2022-11-28T09:33:54.445Z,8.65
2022-11-28T09:36:24.246Z,7.82
2022-11-28T09:38:52.184Z,7.29
2022-11-28T09:41:29.184Z,7.30
2022-11-28T09:44:14.905Z,9.01
2022-11-28T09:46:43.644Z,9.13
2022-11-28T09:49:45.799Z,8.54
2022-11-28T09:52:38.825Z,8.16
2022-11-28T09:55:32.556Z,8.04
2022-11-28T09:58:06.721Z,8.03
2022-11-28T10:00:45.177Z,8.09
2022-11-28T10:03:49.030Z,8.17
2022-11-28T10:06:39.850Z,8.06
2022-11-28T10:09:20.870Z,8.05
2022-11-28T10:12:08.150Z,8.04
2022-11-28T10:15:14.435Z,8.12
2022-11-28T10:18:11.211Z,8.31
2022-11-28T10:20:46.110Z,8.55
2022-11-28T10:23:26.047Z,8.68
2022-11-28T10:26:04.043Z,8.75
2022-11-28T10:28:38.460Z,8.78
2022-11-28T10:31:17.181Z,8.92
2022-11-28T10:33:52.672Z,9.05
2022-11-28T10:36:34.812Z,9.09
2022-11-28T10:39:12.439Z,9.21
2022-11-28T10:42:17.177Z,9.35
2022-11-28T10:45:06.038Z,9.54
2022-11-28T10:47:45.951Z,9.79
2022-11-28T10:50:32.036Z,10.13
2022-11-28T10:53:25.018Z,10.45
2022-11-28T10:56:04.381Z,10.75
2022-11-28T10:59:10.157Z,10.88
2022-11-28T11:01:45.968Z,11.08
2022-11-28T11:04:22.626Z,11.23
2022-11-28T11:07:20.808Z,11.42
2022-11-28T11:09:51.302Z,11.48
2022-11-28T11:12:26.499Z,11.62
2022-11-28T11:14:54.920Z,11.73
2022-11-28T11:17:38.095Z,11.76
2022-11-28T11:20:35.600Z,11.87
2022-11-28T11:23:20.835Z,11.94
2022-11-28T11:25:56.552Z,12.07
2022-11-28T11:28:31.669Z,12.04
2022-11-28T11:31:13.965Z,11.95
2022-11-28T11:33:42.807Z,11.75
2022-11-28T11:36:31.114Z,11.69
2022-11-28T11:39:16.844Z,11.65
2022-11-28T11:41:49.237Z,11.63
2022-11-28T11:44:34.405Z,11.32
2022-11-28T11:47:10.310Z,11.15
2022-11-28T11:50:06.017Z,11.07
2022-11-28T11:52:33.937Z,10.79
2022-11-28T11:55:14.937Z,10.76
2022-11-28T11:57:54.314Z,10.63
2022-11-28T12:00:41.154Z,10.59
2022-11-28T12:03:29.672Z,10.54
2022-11-28T12:06:14.847Z,10.49
2022-11-28T12:08:55.528Z,10.35
2022-11-28T12:11:36.409Z,10.26
2022-11-28T12:14:25.707Z,10.16
2022-11-28T12:20:40.561Z,10.09
2022-11-28T12:23:30.380Z,10.04
2022-11-28T12:26:16.829Z,10.00
2022-11-28T12:31:58.568Z,9.82
2022-11-28T12:34:54.720Z,9.73
2022-11-28T12:38:09.856Z,9.60
2022-11-28T12:41:17.182Z,9.48
2022-11-28T12:44:06.899Z,9.36
2022-11-28T12:46:57.122Z,9.21
2022-11-28T12:49:59.895Z,9.03
2022-11-28T12:52:53.392Z,8.98
2022-11-28T12:55:44.461Z,8.90
2022-11-28T12:58:24.123Z,8.80
2022-11-28T13:01:29.190Z,9.29
2022-11-28T13:04:52.974Z,10.60
2022-11-28T13:07:48.502Z,9.87
2022-11-28T13:10:45.771Z,9.37
2022-11-28T13:13:19.442Z,8.98
2022-11-28T13:16:03.090Z,8.69
2022-11-28T13:18:55.706Z,9.72
2022-11-28T13:21:50.492Z,10.39
2022-11-28T13:24:48.719Z,9.43
2022-11-28T13:27:36.745Z,8.76
2022-11-28T13:30:20.802Z,8.77
2022-11-28T13:33:13.125Z,10.47
2022-11-28T13:35:48.187Z,10.17
2022-11-28T13:38:35.772Z,9.26
2022-11-28T13:42:05.893Z,8.63
2022-11-28T13:44:46.965Z,9.13
2022-11-28T13:47:29.169Z,10.48
2022-11-28T13:50:35.949Z,9.69
2022-11-28T13:53:10.700Z,8.83
2022-11-28T13:55:56.887Z,8.98
2022-11-28T13:58:57.278Z,10.65
2022-11-28T14:01:31.259Z,10.04
2022-11-28T14:04:00.511Z,9.20
2022-11-28T14:06:45.650Z,8.74
2022-11-28T14:09:44.926Z,10.11
2022-11-28T14:12:44.280Z,10.49
2022-11-28T14:15:38.730Z,9.38
2022-11-28T14:18:56.397Z,8.64
2022-11-28T14:25:21.098Z,9.94
2022-11-28T14:27:57.225Z,8.90
2022-11-28T14:30:38.102Z,8.54
2022-11-28T14:33:19.859Z,10.02
2022-11-28T14:35:51.022Z,9.88
2022-11-28T14:38:31.164Z,8.91
2022-11-28T14:41:05.762Z,8.16
2022-11-28T14:43:38.142Z,8.62
2022-11-28T14:46:26.596Z,10.19
2022-11-28T14:49:00.472Z,9.73
2022-11-28T14:51:47.311Z,8.78
2022-11-28T14:54:35.649Z,8.04
2022-11-28T14:57:18.754Z,9.04
2022-11-28T14:59:46.886Z,9.99
2022-11-28T15:02:40.143Z,9.11
2022-11-28T15:05:54.216Z,8.14
2022-11-28T15:09:05.253Z,8.15
2022-11-28T15:11:59.021Z,10.13
2022-11-28T15:14:31.978Z,9.51
2022-11-28T15:17:10.966Z,8.49
2022-11-28T15:19:47.936Z,8.06
2022-11-28T15:22:43.808Z,9.61
2022-11-28T15:25:24.122Z,9.45
2022-11-28T15:27:56.780Z,8.34
2022-11-28T15:30:26.930Z,8.06
2022-11-28T15:33:03.924Z,9.61
2022-11-28T15:35:35.572Z,9.49
2022-11-28T15:38:03.703Z,8.41
2022-11-28T15:40:35.129Z,8.04
2022-11-28T15:43:12.750Z,9.63
2022-11-28T15:45:44.394Z,9.80
2022-11-28T15:48:40.062Z,8.62
2022-11-28T15:51:27.025Z,8.27
2022-11-28T15:54:03.811Z,10.04
2022-11-28T15:56:35.001Z,10.42
2022-11-28T15:59:04.278Z,9.19
2022-11-28T16:01:33.154Z,8.20
2022-11-28T16:04:08.550Z,8.01
2022-11-28T16:06:41.397Z,9.65
2022-11-28T16:09:18.546Z,10.28
2022-11-28T16:12:04.003Z,9.04
2022-11-28T16:14:36.663Z,8.01
2022-11-28T16:17:20.451Z,7.36
2022-11-28T16:19:55.041Z,8.46
2022-11-28T16:22:31.636Z,9.79
2022-11-28T16:25:24.057Z,8.93
2022-11-28T16:27:57.414Z,7.81
2022-11-28T16:30:38.406Z,8.52
2022-11-28T16:33:36.936Z,10.02
2022-11-28T16:36:14.261Z,9.43
2022-11-28T16:38:45.262Z,8.23
2022-11-28T16:41:25.434Z,7.95
2022-11-28T16:44:15.199Z,9.51
2022-11-28T16:47:00.992Z,9.49
2022-11-28T16:49:40.610Z,8.25
2022-11-28T16:52:27.294Z,7.90
2022-11-28T16:55:01.311Z,9.49
2022-11-28T16:57:49.172Z,9.79
2022-11-28T17:00:20.155Z,8.47
2022-11-28T17:02:59.792Z,7.85
2022-11-28T17:05:27.717Z,9.01
2022-11-28T17:07:56.194Z,9.67
2022-11-28T17:10:27.862Z,8.64
2022-11-28T17:12:55.700Z,7.79
2022-11-28T17:15:31.013Z,8.52
2022-11-28T17:17:59.466Z,9.79
2022-11-28T17:20:28.670Z,9.49
2022-11-28T17:22:59.141Z,8.31
2022-11-28T17:25:27.210Z,8.12
2022-11-28T17:27:55.096Z,9.47
2022-11-28T17:30:23.285Z,10.24
2022-11-28T17:32:52.156Z,9.33
2022-11-28T17:35:23.655Z,8.30
2022-11-28T17:37:51.859Z,8.55
2022-11-28T17:40:36.755Z,9.90
2022-11-28T17:43:16.688Z,9.68
2022-11-28T17:45:45.178Z,8.53
2022-11-28T17:48:15.958Z,8.74
2022-11-28T17:50:46.837Z,10.03
2022-11-28T17:53:18.106Z,9.45
2022-11-28T17:55:48.903Z,8.44
2022-11-28T17:58:22.446Z,8.56
2022-11-28T18:00:53.118Z,10.07
2022-11-28T18:03:23.974Z,10.70
2022-11-28T18:05:51.905Z,9.54
2022-11-28T18:08:22.379Z,8.53
2022-11-28T18:10:50.916Z,9.02
2022-11-28T18:13:19.095Z,10.29
2022-11-28T18:15:47.974Z,9.67
2022-11-28T18:18:16.123Z,8.64
2022-11-28T18:20:44.035Z,9.07
2022-11-28T18:23:12.524Z,10.34
2022-11-28T18:25:44.374Z,9.66
2022-11-28T18:28:18.694Z,8.63
2022-11-28T18:30:47.799Z,9.45
2022-11-28T18:33:16.906Z,10.19
2022-11-28T18:35:44.836Z,9.21
2022-11-28T18:38:12.911Z,8.30
2022-11-28T18:40:40.884Z,8.66
2022-11-28T18:43:08.993Z,10.16
2022-11-28T18:45:36.828Z,10.82
2022-11-28T18:48:05.098Z,9.63
2022-11-28T18:50:35.115Z,8.67
2022-11-28T18:53:03.186Z,9.36
2022-11-28T18:55:31.080Z,10.46
2022-11-28T18:58:01.781Z,9.56
2022-11-28T19:00:29.769Z,8.57
2022-11-28T19:02:57.734Z,8.58
2022-11-28T19:05:25.697Z,10.15
2022-11-28T19:07:53.742Z,9.99
2022-11-28T19:10:21.684Z,8.90
2022-11-28T19:12:49.557Z,8.32
2022-11-28T19:15:17.798Z,9.51
2022-11-28T19:17:45.628Z,10.65
2022-11-28T19:20:13.598Z,9.80
2022-11-28T19:22:41.475Z,8.79
2022-11-28T19:25:09.870Z,8.77
2022-11-28T19:27:38.009Z,10.30
2022-11-28T19:30:07.209Z,10.20
2022-11-28T19:32:36.364Z,9.12
2022-11-28T19:35:04.957Z,8.42
2022-11-28T19:37:33.331Z,9.33
2022-11-28T19:40:02.819Z,10.63
2022-11-28T19:42:31.229Z,9.91
2022-11-28T19:45:02.116Z,8.88
2022-11-28T19:47:30.124Z,8.54
2022-11-28T19:49:58.243Z,9.93
2022-11-28T19:52:26.126Z,10.87
2022-11-28T19:54:55.500Z,9.90
2022-11-28T19:57:26.543Z,8.91
2022-11-28T19:59:54.753Z,8.50
2022-11-28T20:02:23.624Z,9.91
2022-11-28T20:04:52.318Z,10.05
2022-11-28T20:07:20.326Z,9.07
2022-11-28T20:09:48.450Z,8.32
2022-11-28T20:12:16.479Z,8.83
2022-11-28T20:14:44.508Z,10.47
2022-11-28T20:17:12.568Z,10.62
2022-11-28T20:19:40.714Z,9.46
2022-11-28T20:22:09.239Z,8.62
2022-11-28T20:24:37.416Z,8.57
2022-11-28T20:27:05.432Z,10.12
2022-11-28T20:29:33.704Z,10.76
2022-11-28T20:32:01.981Z,9.72
2022-11-28T20:34:29.977Z,8.77
2022-11-28T20:37:04.561Z,8.49
2022-11-28T20:39:32.622Z,9.98
2022-11-28T20:42:00.731Z,10.89
2022-11-28T20:44:31.662Z,9.85
2022-11-28T20:46:59.909Z,8.84
2022-11-28T20:49:28.466Z,8.19
2022-11-28T20:51:56.351Z,8.94
2022-11-28T20:54:26.072Z,10.50
2022-11-28T20:59:44.026Z,9.02
2022-11-28T21:02:25.766Z,8.60
2022-11-28T21:04:55.327Z,10.09
2022-11-28T21:07:25.347Z,9.98
2022-11-28T21:10:00.204Z,8.95
2022-11-28T21:12:28.201Z,8.65
2022-11-28T21:14:56.242Z,10.06
2022-11-28T21:17:24.368Z,10.47
2022-11-28T21:19:52.936Z,9.31
2022-11-28T21:22:20.953Z,8.44
2022-11-28T21:24:51.258Z,8.94
2022-11-28T21:27:19.386Z,10.54
2022-11-28T21:29:52.187Z,10.47
2022-11-28T21:32:20.287Z,9.30
2022-11-28T21:34:48.231Z,8.47
2022-11-28T21:37:16.207Z,9.37
2022-11-28T21:39:44.785Z,10.58
2022-11-28T21:42:18.988Z,9.83
2022-11-28T21:44:48.359Z,8.82
2022-11-28T21:47:16.375Z,8.69
2022-11-28T21:49:44.842Z,10.09
2022-11-28T21:52:13.638Z,9.77
2022-11-28T21:54:41.706Z,8.71
2022-11-28T21:57:09.985Z,8.95
2022-11-28T21:59:38.869Z,10.31
2022-11-28T22:02:11.413Z,9.94
2022-11-28T22:04:39.933Z,8.87
2022-11-28T22:07:08.717Z,8.23
2022-11-28T22:09:36.938Z,9.18
2022-11-28T22:12:05.794Z,10.22
2022-11-28T22:14:37.879Z,9.27
2022-11-28T22:17:53.595Z,8.75
2022-11-28T22:20:21.558Z,10.12
2022-11-28T22:22:50.423Z,9.81
2022-11-28T22:25:18.579Z,8.83
2022-11-28T22:27:46.673Z,8.14
2022-11-28T22:30:15.064Z,8.81
2022-11-28T22:32:43.153Z,10.40
2022-11-28T22:35:15.721Z,10.68
2022-11-28T22:37:43.884Z,9.50
2022-11-28T22:40:15.720Z,8.59
2022-11-28T22:42:44.029Z,8.51
2022-11-28T22:45:12.280Z,10.11
2022-11-28T22:47:40.474Z,10.21
2022-11-28T22:50:09.126Z,9.19
2022-11-28T22:52:37.258Z,8.42
2022-11-28T22:55:06.279Z,8.53
2022-11-28T22:57:34.394Z,10.19
2022-11-28T23:00:02.315Z,10.54
2022-11-28T23:02:30.659Z,9.47
2022-11-28T23:04:58.878Z,8.60
2022-11-28T23:07:27.284Z,8.49
2022-11-28T23:09:55.655Z,10.04
2022-11-28T23:19:26.504Z,8.41
2022-11-28T23:21:54.917Z,8.86
2022-11-28T23:24:23.874Z,10.46
2022-11-28T23:26:52.844Z,10.46
2022-11-28T23:29:21.096Z,9.38
2022-11-28T23:31:49.335Z,8.56
2022-11-28T23:34:17.486Z,9.33
2022-11-28T23:36:47.286Z,10.37
2022-11-28T23:39:19.859Z,9.54
2022-11-28T23:41:48.169Z,8.63
2022-11-28T23:44:18.424Z,8.37
2022-11-28T23:46:48.774Z,9.83
2022-11-28T23:49:16.877Z,10.72
2022-11-28T23:51:44.920Z,9.81
2022-11-28T23:54:13.052Z,8.88
2022-11-28T23:56:41.921Z,8.20
2022-11-28T23:59:11.726Z,8.29
